Terminal Aerodrome Forecast
Issued by NWS Tampa Bay Area, FL

Home | Current Version | Previous Version | Text Only | Print | Product List | Glossary On
Versions: 1 2 3 4 5 6 7 8 9 10 11 12 13 14 15 16 17 18 19 20 21 22 23 24 25
000
FTUS42 KTBW 082322
TAFTPA
TAF
KTPA 082322Z 0900/0924 35008KT P6SM BKN090 OVC150
     FM090600 01010KT P6SM VCSH SCT050 BKN080 OVC120
     FM091500 02010KT P6SM VCSH SCT050 BKN100 BKN150
     FM091900 02009KT P6SM SCT100 BKN250=

USA.gov is the U.S. government's official web portal to all federal, state and local government web resources and services.